Time;durP1;ratioP1;P1;durP2;ratioP2;P2;SDS_P1;SDS_P2;PMS_P1;PMS_P2;Temp;Humidity;BMP_temperature;BMP_pressure;BME280_temperature;BME280_humidity;BME280_pressure;Samples;Min_cycle;Max_cycle;Signal;HPM_P1;HPM_P2
2023/02/01 00:00:57;;;;;;;17.73;8.30;;;7.30;1.00;;;;;;4971935;28;20203;-86
2023/02/01 00:03:23;;;;;;;16.60;7.20;;;7.30;1.00;;;;;;4970842;28;20713;-88
2023/02/01 00:05:59;;;;;;;16.63;6.67;;;7.30;1.00;;;;;;4972396;28;20389;-87
2023/02/01 00:08:25;;;;;;;16.80;6.80;;;7.20;1.00;;;;;;4973420;28;20184;-88
2023/02/01 00:11:01;;;;;;;23.43;6.80;;;7.20;1.00;;;;;;4972805;28;20194;-87
2023/02/01 00:13:31;;;;;;;16.60;7.13;;;7.10;1.00;;;;;;4973162;28;20467;-88
2023/02/01 00:16:07;;;;;;;16.63;5.03;;;7.10;1.00;;;;;;4975737;28;20188;-86
2023/02/01 00:18:33;;;;;;;15.80;5.95;;;7.10;99.90;;;;;;4988666;28;20556;-87
2023/02/01 00:20:58;;;;;;;8.90;4.07;;;7.10;99.90;;;;;;4974107;28;20253;-88
2023/02/01 00:23:24;;;;;;;15.37;5.50;;;7.10;99.90;;;;;;4967562;28;20244;-87
2023/02/01 00:25:49;;;;;;;16.60;4.63;;;7.10;99.90;;;;;;4972284;28;20184;-87
2023/02/01 00:28:15;;;;;;;12.83;4.87;;;7.00;99.90;;;;;;4966535;28;20188;-87
2023/02/01 00:30:40;;;;;;;12.70;5.60;;;7.10;33.50;;;;;;4967027;28;20185;-87
2023/02/01 00:33:06;;;;;;;15.80;4.70;;;7.10;1.00;;;;;;4968968;28;20242;-87
2023/02/01 00:35:34;;;;;;;20.87;5.43;;;7.10;1.00;;;;;;4974433;28;20219;-88
2023/02/01 00:38:00;;;;;;;15.68;4.90;;;7.10;1.00;;;;;;4987360;28;20199;-87
2023/02/01 00:40:25;;;;;;;23.70;5.50;;;7.10;1.00;;;;;;4988256;28;20279;-87
2023/02/01 00:42:51;;;;;;;10.97;4.13;;;7.10;1.00;;;;;;4966752;28;20478;-87
2023/02/01 00:45:17;;;;;;;19.53;5.10;;;7.10;1.00;;;;;;4970715;28;20215;-87
2023/02/01 00:47:43;;;;;;;19.57;4.90;;;7.10;99.90;;;;;;4978879;28;20479;-87
2023/02/01 00:50:09;;;;;;;11.53;4.97;;;7.10;99.90;;;;;;4972213;28;20519;-87
2023/02/01 00:52:35;;;;;;;15.93;4.60;;;7.10;1.00;;;;;;4973194;28;20313;-88
2023/02/01 00:55:00;;;;;;;19.27;4.33;;;7.00;1.00;;;;;;4972526;28;20708;-87
2023/02/01 00:57:26;;;;;;;17.40;5.17;;;7.00;1.00;;;;;;4972653;28;20192;-87
2023/02/01 00:59:51;;;;;;;17.63;4.97;;;6.90;99.90;;;;;;4969890;28;20213;-87
2023/02/01 01:02:17;;;;;;;15.43;4.30;;;6.80;99.90;;;;;;4969736;28;20679;-88
2023/02/01 01:04:42;;;;;;;24.50;4.40;;;6.70;99.90;;;;;;4970400;28;20370;-87
2023/02/01 01:07:08;;;;;;;19.23;4.63;;;6.60;1.00;;;;;;4969118;28;20176;-87
2023/02/01 01:09:34;;;;;;;15.87;5.33;;;6.60;1.00;;;;;;4972932;28;20195;-88
2023/02/01 01:12:02;;;;;;;13.33;4.70;;;6.50;1.00;;;;;;4966213;28;20216;-87
2023/02/01 01:14:29;;;;;;;16.48;4.97;;;6.40;64.90;;;;;;4972686;28;20459;-88
2023/02/01 01:16:54;;;;;;;17.45;4.85;;;6.40;99.90;;;;;;4969079;28;20197;-87
2023/02/01 01:19:20;;;;;;;12.23;4.60;;;6.40;99.90;;;;;;4969368;28;20196;-88
2023/02/01 01:21:45;;;;;;;14.63;5.03;;;6.40;99.90;;;;;;4968461;28;20196;-87
2023/02/01 01:24:11;;;;;;;14.63;4.50;;;6.30;99.90;;;;;;4971958;28;20219;-87
2023/02/01 01:26:36;;;;;;;22.93;6.30;;;6.30;1.00;;;;;;4972256;28;20664;-87
2023/02/01 01:29:03;;;;;;;26.10;6.30;;;6.30;1.00;;;;;;4972175;28;20195;-87
2023/02/01 01:31:29;;;;;;;15.65;5.70;;;6.30;1.00;;;;;;4972746;28;20215;-86
2023/02/01 01:33:58;;;;;;;10.02;4.45;;;6.20;1.00;;;;;;4968928;28;20211;-88
2023/02/01 01:36:24;;;;;;;16.20;5.20;;;6.20;1.00;;;;;;4964851;28;20180;-87
2023/02/01 01:38:51;;;;;;;22.05;6.95;;;6.20;1.00;;;;;;4970519;28;20188;-87
2023/02/01 01:41:20;;;;;;;16.88;4.88;;;6.20;1.00;;;;;;4970502;28;20199;-86
2023/02/01 01:43:58;;;;;;;16.00;5.20;;;6.20;1.00;;;;;;4971564;28;20219;-87
2023/02/01 01:46:30;;;;;;;16.98;5.03;;;6.20;1.00;;;;;;4968964;28;20180;-87
2023/02/01 01:49:12;;;;;;;13.68;5.05;;;6.30;1.00;;;;;;4966582;28;20242;-88
2023/02/01 01:51:45;;;;;;;21.60;6.00;;;6.40;1.00;;;;;;4968134;28;20188;-89
2023/02/01 01:54:17;;;;;;;13.00;4.65;;;6.40;1.00;;;;;;4969557;28;20215;-88
2023/02/01 01:56:46;;;;;;;11.20;4.47;;;6.50;1.00;;;;;;4970081;28;20195;-87
2023/02/01 01:59:12;;;;;;;15.05;5.25;;;6.50;1.00;;;;;;4970063;28;20180;-87
2023/02/01 02:01:38;;;;;;;10.90;5.47;;;6.60;1.00;;;;;;4970886;28;20184;-87
2023/02/01 02:04:04;;;;;;;11.77;5.17;;;6.60;1.00;;;;;;4972069;28;20222;-87
2023/02/01 02:06:40;;;;;;;15.35;5.45;;;6.60;1.00;;;;;;4971510;28;20214;-87
2023/02/01 02:09:06;;;;;;;18.00;5.90;;;6.60;1.00;;;;;;4971034;28;20316;-87
2023/02/01 02:11:32;;;;;;;15.73;4.82;;;6.70;1.00;;;;;;4968535;28;20278;-88
2023/02/01 02:13:58;;;;;;;12.52;4.90;;;6.70;1.00;;;;;;4969532;28;20204;-88
2023/02/01 02:16:33;;;;;;;23.48;5.80;;;6.70;1.00;;;;;;4977109;28;20179;-89
2023/02/01 02:19:26;;;;;;;15.77;6.68;;;6.70;1.00;;;;;;4972268;28;20535;-88
2023/02/01 02:22:36;;;;;;;18.63;6.85;;;6.70;1.00;;;;;;4982740;28;20235;-87
2023/02/01 02:25:14;;;;;;;20.27;6.35;;;6.70;1.00;;;;;;4968570;28;20214;-87
2023/02/01 02:27:54;;;;;;;13.90;6.05;;;6.70;1.00;;;;;;4964982;28;20607;-87
2023/02/01 02:30:27;;;;;;;19.88;7.43;;;6.70;1.00;;;;;;4969825;28;20180;-87
2023/02/01 02:33:40;;;;;;;21.27;6.43;;;6.70;1.00;;;;;;4968725;28;20201;-87
2023/02/01 02:36:33;;;;;;;16.90;6.57;;;6.70;11.70;;;;;;4965722;28;20180;-88
2023/02/01 02:39:11;;;;;;;17.58;6.90;;;6.70;48.90;;;;;;4968093;28;20173;-88
2023/02/01 02:48:10;;;;;;;22.80;8.40;;;6.80;99.90;;;;;;4969921;28;20683;-87
2023/02/01 03:04:56;;;;;;;19.65;7.20;;;6.70;99.90;;;;;;4971117;28;20223;-88
2023/02/01 03:07:43;;;;;;;26.15;7.47;;;6.70;99.90;;;;;;4969571;28;20176;-88
2023/02/01 03:10:27;;;;;;;22.35;6.63;;;6.80;99.90;;;;;;4965800;28;20187;-87
2023/02/01 03:12:55;;;;;;;13.43;7.60;;;6.80;99.90;;;;;;4962939;28;20177;-88
2023/02/01 03:15:39;;;;;;;18.80;6.60;;;6.80;99.90;;;;;;4968821;28;20196;-88
2023/02/01 03:18:16;;;;;;;18.38;6.57;;;6.80;99.90;;;;;;4968564;28;20653;-88
2023/02/01 03:20:46;;;;;;;20.25;6.05;;;6.80;99.90;;;;;;4970862;28;20223;-88
2023/02/01 03:23:15;;;;;;;17.42;8.25;;;6.80;39.30;;;;;;4967747;28;20307;-87
2023/02/01 03:25:41;;;;;;;24.02;6.53;;;6.70;1.00;;;;;;4973037;28;20213;-89
2023/02/01 03:28:09;;;;;;;19.08;5.80;;;6.70;1.00;;;;;;4974290;28;20267;-88
2023/02/01 03:30:41;;;;;;;20.65;5.78;;;6.70;1.00;;;;;;4974954;28;20190;-87
2023/02/01 03:33:20;;;;;;;22.13;5.45;;;6.60;1.00;;;;;;4971792;28;20208;-87
2023/02/01 03:36:06;;;;;;;20.92;5.63;;;6.60;1.00;;;;;;4967524;28;20274;-88
2023/02/01 03:38:40;;;;;;;18.48;6.72;;;6.60;1.00;;;;;;4972777;28;20177;-88
2023/02/01 03:41:35;;;;;;;14.98;5.78;;;6.60;1.00;;;;;;4976278;28;20268;-88
2023/02/01 03:44:04;;;;;;;17.35;5.05;;;6.60;1.00;;;;;;4968332;28;20287;-88
2023/02/01 03:46:35;;;;;;;14.73;6.05;;;6.60;1.00;;;;;;4971902;28;20271;-88
2023/02/01 03:49:05;;;;;;;26.30;5.57;;;6.60;1.00;;;;;;4966324;28;20228;-87
2023/02/01 03:51:31;;;;;;;19.83;5.35;;;6.60;1.00;;;;;;4969465;28;20180;-88
2023/02/01 03:53:58;;;;;;;12.27;4.95;;;6.60;99.90;;;;;;4972006;28;21070;-88
2023/02/01 03:56:27;;;;;;;24.13;6.00;;;6.60;99.90;;;;;;4970798;28;20619;-89
2023/02/01 03:58:58;;;;;;;16.63;5.70;;;6.60;99.90;;;;;;4970081;28;20180;-87
2023/02/01 04:01:28;;;;;;;18.27;5.43;;;6.50;99.90;;;;;;4974097;28;20243;-86
2023/02/01 04:03:54;;;;;;;14.80;4.20;;;6.50;99.90;;;;;;4964413;28;20221;-88
2023/02/01 04:06:20;;;;;;;19.50;5.87;;;6.50;99.90;;;;;;4972666;28;20550;-88
2023/02/01 04:08:46;;;;;;;13.97;4.27;;;6.60;99.90;;;;;;4980224;28;20447;-87
2023/02/01 04:11:11;;;;;;;12.57;3.80;;;6.60;1.00;;;;;;4975299;28;20192;-88
2023/02/01 04:13:37;;;;;;;16.37;5.70;;;6.60;1.00;;;;;;4972737;28;20472;-88
2023/02/01 04:16:02;;;;;;;11.90;4.63;;;6.60;1.00;;;;;;4980181;28;20772;-87
2023/02/01 04:18:28;;;;;;;17.93;4.80;;;6.60;99.90;;;;;;4973644;28;20192;-88
2023/02/01 04:20:53;;;;;;;21.80;5.00;;;6.60;99.90;;;;;;4972727;28;20196;-88
2023/02/01 04:23:20;;;;;;;13.87;4.30;;;6.50;99.90;;;;;;4966420;28;20216;-88
2023/02/01 04:25:46;;;;;;;13.27;4.82;;;6.50;99.90;;;;;;4970551;28;20181;-88
2023/02/01 04:28:11;;;;;;;13.53;3.93;;;6.40;99.90;;;;;;4972330;28;20186;-88
2023/02/01 04:30:37;;;;;;;18.67;4.93;;;6.40;99.90;;;;;;4974080;28;20471;-89
2023/02/01 04:33:06;;;;;;;20.80;6.10;;;6.40;99.90;;;;;;4972801;28;20187;-89
2023/02/01 04:35:31;;;;;;;12.05;4.22;;;6.40;1.00;;;;;;4993531;28;20176;-88
2023/02/01 04:37:57;;;;;;;14.77;4.47;;;6.30;1.00;;;;;;4969101;28;20199;-89
2023/02/01 04:40:22;;;;;;;14.93;4.80;;;6.30;1.00;;;;;;4965209;28;20207;-87
2023/02/01 04:42:48;;;;;;;15.50;4.43;;;6.30;1.00;;;;;;4976413;28;20177;-87
2023/02/01 04:45:13;;;;;;;13.50;3.10;;;6.20;1.00;;;;;;4972344;28;20267;-89
2023/02/01 04:47:39;;;;;;;15.03;4.63;;;6.20;1.00;;;;;;4972394;28;20266;-88
2023/02/01 04:50:05;;;;;;;23.20;5.03;;;6.20;1.00;;;;;;4974192;28;20198;-86
2023/02/01 04:52:31;;;;;;;13.15;3.85;;;6.20;1.00;;;;;;4971080;28;20202;-88
2023/02/01 04:54:59;;;;;;;20.83;4.20;;;6.20;1.00;;;;;;4970577;28;20208;-88
2023/02/01 04:57:24;;;;;;;17.20;3.67;;;6.10;1.00;;;;;;4972685;28;20221;-88
2023/02/01 04:59:50;;;;;;;18.57;5.17;;;6.10;1.00;;;;;;4971939;28;20220;-88
2023/02/01 05:02:16;;;;;;;16.83;4.03;;;6.10;1.00;;;;;;4969955;28;20459;-88
2023/02/01 05:04:41;;;;;;;16.90;4.33;;;6.10;1.00;;;;;;4971884;28;20224;-87
2023/02/01 05:07:07;;;;;;;9.40;3.23;;;6.10;99.90;;;;;;4972881;28;20279;-88
2023/02/01 05:09:32;;;;;;;12.50;3.10;;;6.10;99.90;;;;;;4972085;28;20680;-88
2023/02/01 05:14:42;;;;;;;16.42;3.80;;;6.00;99.90;;;;;;4966944;28;20242;-88
2023/02/01 05:17:07;;;;;;;20.77;4.57;;;6.00;99.90;;;;;;4968460;28;20219;-88
2023/02/01 05:19:33;;;;;;;14.07;3.17;;;6.00;99.90;;;;;;4971448;28;20670;-88
2023/02/01 05:21:58;;;;;;;13.10;3.73;;;6.00;99.90;;;;;;4971091;28;20197;-88
2023/02/01 05:24:24;;;;;;;17.50;5.10;;;6.00;99.90;;;;;;4972108;28;20220;-88
2023/02/01 05:26:50;;;;;;;19.30;4.27;;;6.00;64.80;;;;;;4971403;28;20207;-87
2023/02/01 05:29:16;;;;;;;19.03;4.50;;;6.00;99.90;;;;;;4967824;28;20574;-88
2023/02/01 05:31:45;;;;;;;18.75;4.15;;;6.00;99.90;;;;;;4971074;28;20199;-87
2023/02/01 05:34:11;;;;;;;27.30;5.05;;;6.00;3.80;;;;;;4972700;28;20208;-88
2023/02/01 05:36:36;;;;;;;19.75;4.22;;;6.00;20.50;;;;;;4970676;28;20208;-88
2023/02/01 05:39:02;;;;;;;10.57;3.20;;;5.90;1.00;;;;;;4970568;28;20227;-88
2023/02/01 05:41:28;;;;;;;19.40;4.10;;;5.90;23.80;;;;;;4970766;28;20184;-87
2023/02/01 05:43:53;;;;;;;22.47;3.70;;;5.90;1.00;;;;;;4971084;28;20218;-88
2023/02/01 05:46:19;;;;;;;18.57;4.10;;;5.90;1.00;;;;;;4971201;28;20216;-88
2023/02/01 05:48:44;;;;;;;21.17;3.90;;;5.90;1.00;;;;;;4971354;28;20268;-88
2023/02/01 05:51:11;;;;;;;22.00;6.40;;;5.90;1.00;;;;;;4968602;28;20247;-88
2023/02/01 05:53:36;;;;;;;22.60;4.70;;;5.90;1.00;;;;;;4971884;28;20212;-88
2023/02/01 05:56:02;;;;;;;16.17;3.70;;;5.90;1.00;;;;;;4971068;28;20196;-88
2023/02/01 05:58:29;;;;;;;15.95;5.38;;;5.80;29.50;;;;;;4963349;28;20196;-88
2023/02/01 06:00:55;;;;;;;15.65;5.45;;;5.80;99.90;;;;;;4971310;28;20348;-88
2023/02/01 06:03:20;;;;;;;14.70;4.70;;;5.80;99.90;;;;;;4967615;28;20239;-89
2023/02/01 06:05:47;;;;;;;14.63;4.30;;;5.80;99.90;;;;;;4968031;28;20184;-87
2023/02/01 06:08:13;;;;;;;13.45;3.88;;;5.80;99.90;;;;;;4973656;28;20188;-88
2023/02/01 06:10:39;;;;;;;16.60;4.53;;;5.70;99.90;;;;;;4993948;28;20196;-87
2023/02/01 06:13:08;;;;;;;18.40;5.60;;;5.70;1.00;;;;;;4972084;28;20184;-88
2023/02/01 06:15:34;;;;;;;13.32;3.85;;;5.70;1.00;;;;;;4970713;28;20660;-88
2023/02/01 06:17:59;;;;;;;21.00;4.20;;;5.70;1.00;;;;;;4970428;28;20239;-88
2023/02/01 06:20:25;;;;;;;15.53;4.43;;;5.70;1.00;;;;;;4969273;28;20963;-87
2023/02/01 06:22:52;;;;;;;12.00;3.70;;;5.60;1.00;;;;;;4964796;28;20188;-88
2023/02/01 06:25:19;;;;;;;16.40;4.32;;;5.60;1.00;;;;;;4968502;28;20222;-88
2023/02/01 06:27:44;;;;;;;16.05;5.30;;;5.70;41.40;;;;;;4971469;28;20223;-88
2023/02/01 06:30:13;;;;;;;13.90;4.20;;;5.70;99.90;;;;;;4973179;28;20649;-88
2023/02/01 06:32:40;;;;;;;13.88;3.50;;;5.70;98.00;;;;;;4985654;28;20467;-87
2023/02/01 06:35:07;;;;;;;18.20;4.22;;;5.70;49.30;;;;;;4976960;28;20207;-88
2023/02/01 06:37:33;;;;;;;17.02;4.57;;;5.70;1.00;;;;;;4975593;28;20773;-88
2023/02/01 06:39:59;;;;;;;18.65;4.85;;;5.70;18.60;;;;;;4979079;28;20188;-88
2023/02/01 06:42:25;;;;;;;12.67;4.87;;;5.70;8.20;;;;;;4960993;28;20184;-87
2023/02/01 06:44:51;;;;;;;20.53;4.13;;;5.60;34.20;;;;;;4972921;28;20208;-88
2023/02/01 06:47:16;;;;;;;17.30;3.87;;;5.60;93.40;;;;;;4978828;28;20176;-88
2023/02/01 06:49:42;;;;;;;16.37;4.50;;;5.60;99.90;;;;;;4979483;28;20183;-88
2023/02/01 06:52:08;;;;;;;29.50;4.10;;;5.60;99.90;;;;;;4975999;28;20251;-88
2023/02/01 06:54:34;;;;;;;15.03;3.83;;;5.60;99.90;;;;;;4983463;28;20196;-88
2023/02/01 06:56:59;;;;;;;16.30;4.40;;;5.70;99.90;;;;;;4984289;28;20204;-88
2023/02/01 06:59:25;;;;;;;17.27;4.53;;;5.70;99.90;;;;;;4973685;28;20450;-88
2023/02/01 07:01:50;;;;;;;15.03;4.13;;;5.70;99.90;;;;;;4963488;28;20560;-88
2023/02/01 07:04:16;;;;;;;23.27;4.43;;;5.70;99.90;;;;;;4986695;28;20575;-88
2023/02/01 07:06:41;;;;;;;20.57;4.03;;;5.70;99.90;;;;;;4988667;28;20180;-87
2023/02/01 07:09:07;;;;;;;18.43;4.83;;;5.70;99.90;;;;;;4988786;28;20331;-88
2023/02/01 07:11:33;;;;;;;16.67;3.77;;;5.80;99.90;;;;;;4996139;28;20212;-86
2023/02/01 07:13:59;;;;;;;22.10;5.37;;;5.80;99.90;;;;;;4983836;28;21072;-86
2023/02/01 07:16:27;;;;;;;28.30;5.90;;;5.90;99.90;;;;;;4975573;28;20723;-87
2023/02/01 07:18:56;;;;;;;22.70;5.07;;;6.10;1.00;;;;;;4971508;28;20475;-89
2023/02/01 07:21:22;;;;;;;13.55;4.57;;;6.10;1.00;;;;;;4967770;28;20295;-89
2023/02/01 07:23:47;;;;;;;23.90;4.87;;;6.10;99.90;;;;;;4970289;28;20295;-87
2023/02/01 07:26:14;;;;;;;11.30;3.97;;;6.20;99.90;;;;;;4975536;28;20836;-88
2023/02/01 07:28:41;;;;;;;19.75;4.30;;;6.20;1.00;;;;;;4975313;28;20199;-88
2023/02/01 07:31:12;;;;;;;18.77;4.05;;;6.20;1.00;;;;;;4985729;28;20201;-88
2023/02/01 07:33:37;;;;;;;21.38;6.05;;;6.30;1.00;;;;;;4979109;28;20208;-88
2023/02/01 07:36:05;;;;;;;16.03;3.60;;;6.30;1.00;;;;;;4970623;28;20240;-87
2023/02/01 07:38:31;;;;;;;23.33;4.60;;;6.30;99.90;;;;;;4973493;28;20184;-89
2023/02/01 07:41:02;;;;;;;15.40;5.20;;;6.30;99.90;;;;;;4964548;28;20196;-88
2023/02/01 07:43:29;;;;;;;18.85;4.38;;;6.30;99.90;;;;;;4972188;28;20622;-89
2023/02/01 07:45:55;;;;;;;19.20;4.15;;;6.30;99.90;;;;;;4968462;28;20189;-89
2023/02/01 07:48:22;;;;;;;13.15;3.10;;;6.30;99.90;;;;;;4976712;28;20185;-88
2023/02/01 07:50:48;;;;;;;17.02;4.80;;;6.30;99.90;;;;;;4972290;28;20219;-89
2023/02/01 07:53:34;;;;;;;18.80;3.92;;;6.40;99.90;;;;;;4970605;28;20200;-90
2023/02/01 07:56:02;;;;;;;16.42;4.15;;;6.40;99.90;;;;;;4989373;28;20258;-89
2023/02/01 07:58:30;;;;;;;23.23;5.57;;;6.40;99.90;;;;;;4973354;28;20184;-89
2023/02/01 08:03:41;;;;;;;16.33;5.05;;;6.40;75.00;;;;;;4972416;28;20662;-89
2023/02/01 08:06:08;;;;;;;13.93;4.72;;;6.50;1.00;;;;;;4975269;28;20184;-89
2023/02/01 08:08:33;;;;;;;15.02;4.05;;;6.50;1.00;;;;;;4958575;28;20216;-89
2023/02/01 08:11:01;;;;;;;16.30;4.40;;;6.60;99.90;;;;;;4981840;28;20637;-89
2023/02/01 08:13:27;;;;;;;12.70;3.95;;;6.60;99.90;;;;;;4979049;28;20200;-90
2023/02/01 08:15:58;;;;;;;15.83;4.63;;;6.60;85.20;;;;;;4970436;28;20187;-88
2023/02/01 08:18:23;;;;;;;14.85;4.75;;;6.70;1.00;;;;;;4976105;28;20471;-90
2023/02/01 08:20:49;;;;;;;14.27;3.87;;;6.80;99.90;;;;;;4974274;28;20220;-89
2023/02/01 08:23:14;;;;;;;13.90;3.83;;;7.10;99.90;;;;;;4973086;28;20215;-89
2023/02/01 08:25:40;;;;;;;20.83;4.60;;;7.40;1.00;;;;;;4974924;28;20189;-89
2023/02/01 08:28:07;;;;;;;12.40;4.30;;;7.80;1.00;;;;;;4973284;28;20211;-90
2023/02/01 08:30:32;;;;;;;17.63;4.73;;;7.90;99.90;;;;;;4973865;28;20185;-87
2023/02/01 08:32:58;;;;;;;18.30;4.87;;;8.00;99.90;;;;;;4974417;28;20450;-89
2023/02/01 08:35:24;;;;;;;15.97;4.37;;;8.10;99.90;;;;;;4964003;28;20185;-89
2023/02/01 08:37:52;;;;;;;23.33;4.47;;;8.20;1.00;;;;;;4988761;28;20331;-89
2023/02/01 08:40:19;;;;;;;20.30;4.30;;;8.10;1.00;;;;;;4972606;28;20283;-89
2023/02/01 08:42:50;;;;;;;14.67;4.83;;;8.00;1.00;;;;;;4964489;28;20184;-89
2023/02/01 08:45:18;;;;;;;18.80;5.60;;;8.00;1.00;;;;;;4973342;28;20521;-87
2023/02/01 08:47:44;;;;;;;14.37;3.50;;;8.30;1.00;;;;;;4974180;28;20439;-89
2023/02/01 08:50:10;;;;;;;23.00;4.50;;;8.40;1.00;;;;;;4968168;28;20817;-89
2023/02/01 08:52:35;;;;;;;17.00;4.43;;;8.30;99.90;;;;;;4975344;28;20315;-91
2023/02/01 08:55:01;;;;;;;17.30;4.10;;;8.40;99.90;;;;;;4968287;28;21326;-88
2023/02/01 08:57:27;;;;;;;14.47;4.40;;;8.60;99.90;;;;;;4972710;28;20267;-89
2023/02/01 08:59:52;;;;;;;18.13;4.40;;;9.10;99.90;;;;;;4969190;28;20194;-89
2023/02/01 09:02:18;;;;;;;12.30;3.80;;;10.20;99.90;;;;;;4971191;28;20585;-91
2023/02/01 09:04:44;;;;;;;12.20;5.23;;;10.70;1.00;;;;;;4970564;28;20267;-89
2023/02/01 09:07:10;;;;;;;22.27;4.60;;;10.40;1.00;;;;;;4973275;28;20502;-89
2023/02/01 09:09:36;;;;;;;10.57;3.40;;;10.10;1.00;;;;;;4967433;28;20604;-89
2023/02/01 09:12:02;;;;;;;11.70;3.50;;;9.90;1.00;;;;;;4964285;28;20441;-89
2023/02/01 09:14:28;;;;;;;16.93;4.37;;;9.50;1.00;;;;;;4964728;28;20550;-90
2023/02/01 09:16:54;;;;;;;17.00;3.93;;;9.20;1.00;;;;;;4983273;28;20632;-89
2023/02/01 09:19:19;;;;;;;20.73;5.53;;;9.20;1.00;;;;;;4972627;28;20188;-90
2023/02/01 09:21:45;;;;;;;10.07;3.27;;;9.10;1.00;;;;;;4971643;28;20710;-89
2023/02/01 09:24:12;;;;;;;17.17;4.27;;;9.10;1.00;;;;;;4970700;28;20250;-87
2023/02/01 09:26:37;;;;;;;22.70;4.40;;;9.20;1.00;;;;;;4970342;28;20212;-88
2023/02/01 09:29:12;;;;;;;27.03;5.57;;;9.30;1.00;;;;;;4973660;28;20498;-89
2023/02/01 09:31:39;;;;;;;19.10;3.90;;;9.70;1.00;;;;;;4971791;28;20434;-88
2023/02/01 09:34:20;;;;;;;16.03;3.93;;;10.00;1.00;;;;;;4973375;28;20466;-89
2023/02/01 09:36:45;;;;;;;17.80;4.50;;;10.00;1.00;;;;;;4972517;28;20507;-89
2023/02/01 09:39:11;;;;;;;17.90;3.97;;;9.90;1.00;;;;;;4970124;28;20439;-90
2023/02/01 09:42:04;;;;;;;20.20;5.57;;;9.70;1.00;;;;;;4991492;28;20184;-90
2023/02/01 09:44:55;;;;;;;13.63;4.00;;;9.40;1.00;;;;;;4969712;28;20335;-89
2023/02/01 09:47:23;;;;;;;14.50;4.50;;;9.10;1.00;;;;;;4981139;28;20447;-89
2023/02/01 09:50:11;;;;;;;18.10;5.27;;;9.10;1.00;;;;;;4971594;28;20443;-90
2023/02/01 09:52:43;;;;;;;13.00;4.20;;;9.50;1.00;;;;;;4976397;28;20496;-89
2023/02/01 09:55:25;;;;;;;14.90;4.97;;;10.30;1.00;;;;;;4971427;28;20475;-90
2023/02/01 09:58:12;;;;;;;21.27;4.70;;;11.40;1.00;;;;;;4988560;28;20433;-91
2023/02/01 10:00:42;;;;;;;15.63;4.40;;;12.10;1.00;;;;;;4963724;28;20451;-89
2023/02/01 10:03:12;;;;;;;12.20;3.90;;;12.60;99.90;;;;;;4971941;28;20446;-91
2023/02/01 10:06:10;;;;;;;16.47;5.07;;;13.00;99.90;;;;;;4973650;28;21001;-89
2023/02/01 10:09:30;;;;;;;15.67;4.10;;;13.10;99.90;;;;;;4965700;28;20865;-88
2023/02/01 10:12:21;;;;;;;14.13;4.60;;;13.20;99.90;;;;;;4959525;28;20534;-88
2023/02/01 10:15:14;;;;;;;13.77;4.30;;;13.10;99.90;;;;;;4969363;28;20469;-89
2023/02/01 10:18:18;;;;;;;16.93;4.73;;;13.00;99.90;;;;;;4973817;28;20856;-89
2023/02/01 10:21:07;;;;;;;13.90;3.83;;;12.80;99.90;;;;;;4968840;28;20446;-90
2023/02/01 10:24:07;;;;;;;16.17;5.10;;;12.70;99.90;;;;;;4961537;28;20463;-89
2023/02/01 10:26:39;;;;;;;18.50;3.73;;;12.60;99.90;;;;;;4971450;28;20454;-89
2023/02/01 10:29:16;;;;;;;15.93;4.07;;;12.50;99.90;;;;;;4979746;28;20959;-88
2023/02/01 10:31:43;;;;;;;18.87;3.50;;;12.40;99.90;;;;;;4967532;28;20514;-89
2023/02/01 10:34:19;;;;;;;9.87;3.50;;;12.30;99.90;;;;;;4965915;28;20459;-89
2023/02/01 10:37:02;;;;;;;14.77;4.93;;;12.20;99.90;;;;;;4974803;28;21768;-88
2023/02/01 10:39:27;;;;;;;16.67;4.17;;;12.00;99.90;;;;;;4976227;28;20435;-89
2023/02/01 10:41:56;;;;;;;15.30;4.43;;;12.10;99.90;;;;;;4974639;28;20466;-89
2023/02/01 10:44:28;;;;;;;14.83;3.90;;;12.10;99.90;;;;;;4975622;28;20723;-90
2023/02/01 10:46:54;;;;;;;19.37;5.07;;;12.20;99.90;;;;;;4981825;28;20521;-90
2023/02/01 10:49:29;;;;;;;16.83;5.40;;;12.40;99.90;;;;;;4975245;28;20520;-89
2023/02/01 10:52:02;;;;;;;13.77;4.57;;;12.60;99.90;;;;;;4975546;28;20438;-89
2023/02/01 10:54:41;;;;;;;18.47;3.93;;;12.80;99.90;;;;;;4971857;28;20458;-89
2023/02/01 11:00:27;;;;;;;14.50;4.10;;;13.10;99.90;;;;;;4973476;28;20470;-89
2023/02/01 11:02:58;;;;;;;17.87;5.00;;;13.40;99.90;;;;;;4973533;28;20442;-89
2023/02/01 11:05:42;;;;;;;17.57;3.90;;;13.50;99.90;;;;;;4993686;28;20471;-88
2023/02/01 11:08:16;;;;;;;17.10;3.73;;;13.50;99.90;;;;;;4965830;28;20954;-89
2023/02/01 11:10:43;;;;;;;14.13;4.23;;;13.20;99.90;;;;;;4976055;28;20454;-89
2023/02/01 11:13:17;;;;;;;14.03;4.23;;;13.20;99.90;;;;;;4993737;28;20429;-90
2023/02/01 11:15:53;;;;;;;15.23;4.00;;;13.10;99.90;;;;;;4974898;28;20447;-89
2023/02/01 11:18:25;;;;;;;18.53;4.00;;;13.00;99.90;;;;;;4968984;28;20854;-87
2023/02/01 11:20:51;;;;;;;12.67;4.30;;;12.80;99.90;;;;;;4990769;28;20435;-88
2023/02/01 11:23:24;;;;;;;14.83;4.80;;;12.60;99.90;;;;;;4979087;28;20803;-92
2023/02/01 11:26:01;;;;;;;13.13;4.10;;;12.40;99.90;;;;;;4966295;28;20447;-88
2023/02/01 11:28:31;;;;;;;13.43;3.77;;;12.20;99.90;;;;;;4964533;28;20440;-89
2023/02/01 11:31:01;;;;;;;11.23;4.27;;;11.80;99.90;;;;;;4991790;28;20441;-88
2023/02/01 11:33:35;;;;;;;15.90;4.13;;;11.70;99.90;;;;;;4971447;28;20469;-89
2023/02/01 11:36:12;;;;;;;12.57;4.30;;;11.90;99.90;;;;;;4973294;28;20431;-88
2023/02/01 11:38:38;;;;;;;13.83;3.50;;;11.90;99.90;;;;;;4973811;28;20444;-87
2023/02/01 11:41:19;;;;;;;18.80;4.93;;;11.80;99.90;;;;;;4972119;28;20429;-88
2023/02/01 11:43:59;;;;;;;12.70;3.80;;;11.70;99.90;;;;;;4981753;28;20223;-88
2023/02/01 11:46:31;;;;;;;7.53;3.43;;;11.50;99.90;;;;;;4965582;28;20446;-88
2023/02/01 11:49:20;;;;;;;11.90;3.90;;;11.20;99.90;;;;;;4969880;28;20463;-91
2023/02/01 11:52:00;;;;;;;15.93;3.73;;;11.10;99.90;;;;;;4970496;28;20443;-89
2023/02/01 11:54:47;;;;;;;17.13;3.57;;;11.00;99.90;;;;;;4969317;28;21027;-89
2023/02/01 11:57:39;;;;;;;22.27;4.17;;;11.00;99.90;;;;;;4985287;28;20979;-89
2023/02/01 12:00:15;;;;;;;12.73;4.57;;;11.00;99.90;;;;;;4967682;28;20444;-89
2023/02/01 12:03:16;;;;;;;13.80;3.70;;;11.00;99.90;;;;;;4964299;28;20958;-88
2023/02/01 12:05:47;;;;;;;15.00;4.10;;;10.90;99.90;;;;;;4972395;28;20460;-88
2023/02/01 12:08:54;;;;;;;13.90;3.87;;;11.10;99.90;;;;;;4971257;28;20436;-88
2023/02/01 12:11:29;;;;;;;11.60;4.17;;;11.10;99.90;;;;;;4893640;29;20570;-88
2023/02/01 12:14:13;;;;;;;17.30;3.47;;;11.10;99.90;;;;;;4962247;28;20544;-88
2023/02/01 12:17:05;;;;;;;19.07;7.07;;;11.10;99.90;;;;;;4985470;28;20447;-88
2023/02/01 12:19:54;;;;;;;19.63;4.57;;;11.10;99.90;;;;;;4969149;28;20443;-89
2023/02/01 12:22:49;;;;;;;13.23;3.20;;;11.10;99.90;;;;;;4951293;28;20485;-89
2023/02/01 12:25:25;;;;;;;14.60;3.30;;;10.90;99.90;;;;;;4966561;28;20611;-88
2023/02/01 12:28:12;;;;;;;10.13;3.03;;;10.80;99.90;;;;;;4980939;28;20532;-87
2023/02/01 12:30:54;;;;;;;16.40;4.40;;;10.60;99.90;;;;;;4982240;28;20440;-86
2023/02/01 12:33:50;;;;;;;15.43;4.00;;;10.30;99.90;;;;;;4971866;28;20466;-85
2023/02/01 12:36:31;;;;;;;10.30;3.00;;;10.10;99.90;;;;;;4985586;28;20442;-87
2023/02/01 12:39:13;;;;;;;17.50;3.50;;;9.90;99.90;;;;;;4981526;28;20900;-87
2023/02/01 12:42:03;;;;;;;12.87;4.47;;;9.70;99.90;;;;;;4968838;28;20480;-86
2023/02/01 12:44:47;;;;;;;12.47;2.90;;;9.60;99.90;;;;;;4988191;28;20463;-85
2023/02/01 12:47:31;;;;;;;10.90;3.03;;;9.60;99.90;;;;;;4972024;28;20497;-86
2023/02/01 12:50:17;;;;;;;16.43;3.07;;;9.50;99.90;;;;;;4969360;28;20963;-85
2023/02/01 12:52:56;;;;;;;15.00;4.10;;;9.50;99.90;;;;;;4966226;28;20449;-88
2023/02/01 12:56:07;;;;;;;14.70;4.30;;;9.50;99.90;;;;;;4968249;28;20459;-86
2023/02/01 12:59:00;;;;;;;15.17;3.40;;;9.50;99.90;;;;;;4900743;29;20458;-87
2023/02/01 13:02:12;;;;;;;16.90;4.33;;;9.50;99.90;;;;;;4968121;28;20538;-86
2023/02/01 13:04:49;;;;;;;12.77;3.10;;;9.50;99.90;;;;;;4965710;28;20467;-87
2023/02/01 13:07:19;;;;;;;12.73;3.40;;;9.50;99.90;;;;;;4961205;28;20862;-87
2023/02/01 13:09:53;;;;;;;14.47;3.73;;;9.50;99.90;;;;;;4970988;28;20436;-86
2023/02/01 13:12:26;;;;;;;30.60;4.20;;;9.50;99.90;;;;;;4961118;28;20851;-87
2023/02/01 13:15:36;;;;;;;8.33;2.97;;;9.50;99.90;;;;;;4971054;28;20502;-89
2023/02/01 13:18:13;;;;;;;16.13;3.60;;;9.50;99.90;;;;;;4933928;28;20526;-89
2023/02/01 13:20:58;;;;;;;13.67;3.30;;;9.50;99.90;;;;;;4971463;28;20791;-89
2023/02/01 13:23:46;;;;;;;15.03;2.80;;;9.50;99.90;;;;;;4969094;28;20813;-89
2023/02/01 13:26:20;;;;;;;10.80;3.10;;;9.60;99.90;;;;;;4969554;28;20650;-88
2023/02/01 13:28:59;;;;;;;20.77;4.50;;;9.60;99.90;;;;;;4969069;28;20965;-89
2023/02/01 13:31:48;;;;;;;10.47;3.50;;;9.60;99.90;;;;;;4971539;28;20854;-89
2023/02/01 13:34:53;;;;;;;;;;;;;;;;;;;;;
2023/02/01 13:37:38;;;;;;;12.03;3.23;;;9.60;99.90;;;;;;4967147;28;20453;-88
2023/02/01 13:40:45;;;;;;;12.40;3.57;;;9.60;99.90;;;;;;4971215;28;20454;-89
2023/02/01 13:43:32;;;;;;;14.53;4.70;;;9.60;99.90;;;;;;4967727;28;20447;-89
2023/02/01 13:46:07;;;;;;;18.30;3.50;;;9.70;99.90;;;;;;4982746;28;20813;-89